sensor_id;sensor_type;location;lat;lon;timestamp;P1;durP1;ratioP1;P2;durP2;ratioP2
74064;SDS011;62421;51.412;5.432;2023-07-20T00:02:12;13.60;;;3.93;;
74064;SDS011;62421;51.412;5.432;2023-07-20T00:04:37;12.53;;;4.43;;
74064;SDS011;62421;51.412;5.432;2023-07-20T00:07:03;9.80;;;3.83;;
74064;SDS011;62421;51.412;5.432;2023-07-20T00:09:29;13.80;;;4.30;;
74064;SDS011;62421;51.412;5.432;2023-07-20T00:11:54;11.20;;;4.40;;
74064;SDS011;62421;51.412;5.432;2023-07-20T00:14:20;8.80;;;4.53;;
74064;SDS011;62421;51.412;5.432;2023-07-20T00:16:46;9.25;;;4.40;;
74064;SDS011;62421;51.412;5.432;2023-07-20T00:19:14;11.32;;;4.43;;
74064;SDS011;62421;51.412;5.432;2023-07-20T00:21:39;9.50;;;4.30;;
74064;SDS011;62421;51.412;5.432;2023-07-20T00:24:05;9.40;;;4.60;;
74064;SDS011;62421;51.412;5.432;2023-07-20T00:26:31;9.23;;;4.50;;
74064;SDS011;62421;51.412;5.432;2023-07-20T00:28:57;12.27;;;4.20;;
74064;SDS011;62421;51.412;5.432;2023-07-20T00:31:22;8.17;;;4.33;;
74064;SDS011;62421;51.412;5.432;2023-07-20T00:33:47;10.83;;;4.67;;
74064;SDS011;62421;51.412;5.432;2023-07-20T00:36:13;10.45;;;5.15;;
74064;SDS011;62421;51.412;5.432;2023-07-20T00:38:38;10.97;;;4.97;;
74064;SDS011;62421;51.412;5.432;2023-07-20T00:41:04;13.20;;;5.17;;
74064;SDS011;62421;51.412;5.432;2023-07-20T00:43:29;9.97;;;4.90;;
74064;SDS011;62421;51.412;5.432;2023-07-20T00:45:55;12.27;;;5.00;;
74064;SDS011;62421;51.412;5.432;2023-07-20T00:48:21;8.10;;;4.57;;
74064;SDS011;62421;51.412;5.432;2023-07-20T00:50:46;9.20;;;5.00;;
74064;SDS011;62421;51.412;5.432;2023-07-20T00:53:13;8.73;;;4.17;;
74064;SDS011;62421;51.412;5.432;2023-07-20T00:55:39;8.82;;;4.88;;
74064;SDS011;62421;51.412;5.432;2023-07-20T00:58:04;10.73;;;5.00;;
74064;SDS011;62421;51.412;5.432;2023-07-20T01:00:30;11.80;;;4.82;;
74064;SDS011;62421;51.412;5.432;2023-07-20T01:02:55;11.27;;;4.73;;
74064;SDS011;62421;51.412;5.432;2023-07-20T01:05:21;9.27;;;4.60;;
74064;SDS011;62421;51.412;5.432;2023-07-20T01:07:58;13.07;;;5.25;;
74064;SDS011;62421;51.412;5.432;2023-07-20T01:10:35;14.07;;;5.50;;
74064;SDS011;62421;51.412;5.432;2023-07-20T01:13:06;13.30;;;5.50;;
74064;SDS011;62421;51.412;5.432;2023-07-20T01:15:33;9.15;;;5.13;;
74064;SDS011;62421;51.412;5.432;2023-07-20T01:17:59;13.52;;;5.32;;
74064;SDS011;62421;51.412;5.432;2023-07-20T01:20:26;11.57;;;4.82;;
74064;SDS011;62421;51.412;5.432;2023-07-20T01:23:00;13.23;;;5.07;;
74064;SDS011;62421;51.412;5.432;2023-07-20T01:28:38;10.68;;;4.63;;
74064;SDS011;62421;51.412;5.432;2023-07-20T01:31:31;14.98;;;5.20;;
74064;SDS011;62421;51.412;5.432;2023-07-20T01:34:00;11.85;;;5.32;;
74064;SDS011;62421;51.412;5.432;2023-07-20T01:36:28;13.20;;;5.50;;
74064;SDS011;62421;51.412;5.432;2023-07-20T01:38:56;12.37;;;4.67;;
74064;SDS011;62421;51.412;5.432;2023-07-20T01:41:22;9.75;;;4.90;;
74064;SDS011;62421;51.412;5.432;2023-07-20T01:43:48;10.95;;;5.18;;
74064;SDS011;62421;51.412;5.432;2023-07-20T01:46:13;12.82;;;5.38;;
74064;SDS011;62421;51.412;5.432;2023-07-20T01:48:38;10.73;;;5.15;;
74064;SDS011;62421;51.412;5.432;2023-07-20T01:51:04;13.00;;;5.00;;
74064;SDS011;62421;51.412;5.432;2023-07-20T01:53:29;13.30;;;5.93;;
74064;SDS011;62421;51.412;5.432;2023-07-20T01:55:56;13.77;;;5.23;;
74064;SDS011;62421;51.412;5.432;2023-07-20T01:58:21;13.25;;;5.57;;
74064;SDS011;62421;51.412;5.432;2023-07-20T02:00:47;15.13;;;5.50;;
74064;SDS011;62421;51.412;5.432;2023-07-20T02:03:12;15.20;;;5.20;;
74064;SDS011;62421;51.412;5.432;2023-07-20T02:05:38;10.63;;;5.50;;
74064;SDS011;62421;51.412;5.432;2023-07-20T02:08:03;11.20;;;5.50;;
74064;SDS011;62421;51.412;5.432;2023-07-20T02:10:29;13.07;;;5.93;;
74064;SDS011;62421;51.412;5.432;2023-07-20T02:12:54;13.15;;;5.78;;
74064;SDS011;62421;51.412;5.432;2023-07-20T02:15:20;12.17;;;5.90;;
74064;SDS011;62421;51.412;5.432;2023-07-20T02:17:46;13.48;;;7.18;;
74064;SDS011;62421;51.412;5.432;2023-07-20T02:20:11;15.43;;;6.78;;
74064;SDS011;62421;51.412;5.432;2023-07-20T02:22:37;13.40;;;6.67;;
74064;SDS011;62421;51.412;5.432;2023-07-20T02:25:04;15.10;;;6.90;;
74064;SDS011;62421;51.412;5.432;2023-07-20T02:27:30;18.98;;;6.95;;
74064;SDS011;62421;51.412;5.432;2023-07-20T02:29:55;17.70;;;7.03;;
74064;SDS011;62421;51.412;5.432;2023-07-20T02:32:21;14.85;;;6.68;;
74064;SDS011;62421;51.412;5.432;2023-07-20T02:34:46;14.73;;;6.90;;
74064;SDS011;62421;51.412;5.432;2023-07-20T02:37:12;16.60;;;7.70;;
74064;SDS011;62421;51.412;5.432;2023-07-20T02:39:38;16.13;;;7.00;;
74064;SDS011;62421;51.412;5.432;2023-07-20T02:42:04;18.23;;;7.10;;
74064;SDS011;62421;51.412;5.432;2023-07-20T02:44:29;19.48;;;8.02;;
74064;SDS011;62421;51.412;5.432;2023-07-20T02:46:55;15.33;;;8.50;;
74064;SDS011;62421;51.412;5.432;2023-07-20T02:49:20;18.73;;;8.30;;
74064;SDS011;62421;51.412;5.432;2023-07-20T02:51:46;16.27;;;9.25;;
74064;SDS011;62421;51.412;5.432;2023-07-20T02:54:11;18.13;;;9.17;;
74064;SDS011;62421;51.412;5.432;2023-07-20T02:56:37;21.87;;;10.00;;
74064;SDS011;62421;51.412;5.432;2023-07-20T02:59:03;19.77;;;9.27;;
74064;SDS011;62421;51.412;5.432;2023-07-20T03:01:29;20.20;;;10.13;;
74064;SDS011;62421;51.412;5.432;2023-07-20T03:03:54;24.10;;;10.65;;
74064;SDS011;62421;51.412;5.432;2023-07-20T03:06:20;21.47;;;9.40;;
74064;SDS011;62421;51.412;5.432;2023-07-20T03:08:46;20.08;;;10.40;;
74064;SDS011;62421;51.412;5.432;2023-07-20T03:11:17;19.60;;;10.43;;
74064;SDS011;62421;51.412;5.432;2023-07-20T03:13:44;21.70;;;10.10;;
74064;SDS011;62421;51.412;5.432;2023-07-20T03:16:10;19.23;;;9.73;;
74064;SDS011;62421;51.412;5.432;2023-07-20T03:18:37;20.48;;;10.30;;
74064;SDS011;62421;51.412;5.432;2023-07-20T03:21:03;21.15;;;10.05;;
74064;SDS011;62421;51.412;5.432;2023-07-20T03:23:30;20.30;;;10.07;;
74064;SDS011;62421;51.412;5.432;2023-07-20T03:25:55;16.63;;;10.07;;
74064;SDS011;62421;51.412;5.432;2023-07-20T03:28:21;21.70;;;10.63;;
74064;SDS011;62421;51.412;5.432;2023-07-20T03:30:46;23.20;;;11.80;;
74064;SDS011;62421;51.412;5.432;2023-07-20T03:33:11;20.60;;;10.93;;
74064;SDS011;62421;51.412;5.432;2023-07-20T03:35:37;24.60;;;10.50;;
74064;SDS011;62421;51.412;5.432;2023-07-20T03:38:02;18.27;;;10.90;;
74064;SDS011;62421;51.412;5.432;2023-07-20T03:40:29;24.63;;;11.07;;
74064;SDS011;62421;51.412;5.432;2023-07-20T03:42:54;22.20;;;12.30;;
74064;SDS011;62421;51.412;5.432;2023-07-20T03:45:20;21.40;;;11.57;;
74064;SDS011;62421;51.412;5.432;2023-07-20T03:47:45;21.13;;;11.55;;
74064;SDS011;62421;51.412;5.432;2023-07-20T03:50:13;22.53;;;11.83;;
74064;SDS011;62421;51.412;5.432;2023-07-20T03:52:38;19.70;;;9.90;;
74064;SDS011;62421;51.412;5.432;2023-07-20T03:55:04;19.83;;;10.57;;
74064;SDS011;62421;51.412;5.432;2023-07-20T03:57:29;21.33;;;10.60;;
74064;SDS011;62421;51.412;5.432;2023-07-20T03:59:58;22.85;;;11.93;;
74064;SDS011;62421;51.412;5.432;2023-07-20T04:02:23;21.83;;;12.57;;
74064;SDS011;62421;51.412;5.432;2023-07-20T04:04:49;20.57;;;11.40;;
74064;SDS011;62421;51.412;5.432;2023-07-20T04:07:14;19.60;;;11.40;;
74064;SDS011;62421;51.412;5.432;2023-07-20T04:09:39;20.08;;;11.13;;
74064;SDS011;62421;51.412;5.432;2023-07-20T04:12:06;18.77;;;9.30;;
74064;SDS011;62421;51.412;5.432;2023-07-20T04:14:33;16.77;;;9.55;;
74064;SDS011;62421;51.412;5.432;2023-07-20T04:16:58;17.57;;;9.23;;
74064;SDS011;62421;51.412;5.432;2023-07-20T04:19:25;18.08;;;10.50;;
74064;SDS011;62421;51.412;5.432;2023-07-20T04:21:50;17.93;;;10.90;;
74064;SDS011;62421;51.412;5.432;2023-07-20T04:24:16;17.63;;;10.15;;
74064;SDS011;62421;51.412;5.432;2023-07-20T04:26:41;18.65;;;10.73;;
74064;SDS011;62421;51.412;5.432;2023-07-20T04:29:07;17.03;;;10.13;;
74064;SDS011;62421;51.412;5.432;2023-07-20T04:31:32;16.83;;;10.03;;
74064;SDS011;62421;51.412;5.432;2023-07-20T04:33:58;16.85;;;10.50;;
74064;SDS011;62421;51.412;5.432;2023-07-20T04:36:23;16.60;;;8.40;;
74064;SDS011;62421;51.412;5.432;2023-07-20T04:38:48;16.23;;;9.50;;
74064;SDS011;62421;51.412;5.432;2023-07-20T04:41:14;23.57;;;9.13;;
74064;SDS011;62421;51.412;5.432;2023-07-20T04:43:43;16.47;;;9.77;;
74064;SDS011;62421;51.412;5.432;2023-07-20T04:46:09;11.98;;;7.43;;
74064;SDS011;62421;51.412;5.432;2023-07-20T04:48:35;14.02;;;7.65;;
74064;SDS011;62421;51.412;5.432;2023-07-20T04:51:00;15.47;;;7.23;;
74064;SDS011;62421;51.412;5.432;2023-07-20T04:53:26;11.33;;;7.20;;
74064;SDS011;62421;51.412;5.432;2023-07-20T04:55:51;15.53;;;7.90;;
74064;SDS011;62421;51.412;5.432;2023-07-20T04:58:17;14.32;;;7.72;;
74064;SDS011;62421;51.412;5.432;2023-07-20T05:00:43;14.73;;;7.53;;
74064;SDS011;62421;51.412;5.432;2023-07-20T05:03:09;12.65;;;7.25;;
74064;SDS011;62421;51.412;5.432;2023-07-20T05:05:34;11.30;;;6.63;;
74064;SDS011;62421;51.412;5.432;2023-07-20T05:08:00;8.47;;;6.00;;
74064;SDS011;62421;51.412;5.432;2023-07-20T05:10:25;12.37;;;5.20;;
74064;SDS011;62421;51.412;5.432;2023-07-20T05:12:51;8.47;;;5.10;;
74064;SDS011;62421;51.412;5.432;2023-07-20T05:15:16;7.93;;;4.40;;
74064;SDS011;62421;51.412;5.432;2023-07-20T05:17:41;9.43;;;4.60;;
74064;SDS011;62421;51.412;5.432;2023-07-20T05:20:07;7.00;;;3.67;;
74064;SDS011;62421;51.412;5.432;2023-07-20T05:22:35;7.03;;;3.40;;
74064;SDS011;62421;51.412;5.432;2023-07-20T05:25:01;5.47;;;2.80;;
74064;SDS011;62421;51.412;5.432;2023-07-20T05:27:26;9.00;;;2.78;;
74064;SDS011;62421;51.412;5.432;2023-07-20T05:29:51;5.77;;;2.60;;
74064;SDS011;62421;51.412;5.432;2023-07-20T05:32:17;7.07;;;2.88;;
74064;SDS011;62421;51.412;5.432;2023-07-20T05:34:43;5.37;;;3.03;;
74064;SDS011;62421;51.412;5.432;2023-07-20T05:37:08;8.53;;;2.60;;
74064;SDS011;62421;51.412;5.432;2023-07-20T05:39:34;7.27;;;2.80;;
74064;SDS011;62421;51.412;5.432;2023-07-20T05:41:59;8.13;;;3.60;;
74064;SDS011;62421;51.412;5.432;2023-07-20T05:44:25;10.97;;;3.37;;
74064;SDS011;62421;51.412;5.432;2023-07-20T05:46:50;5.40;;;3.30;;
74064;SDS011;62421;51.412;5.432;2023-07-20T05:49:15;6.33;;;3.87;;
74064;SDS011;62421;51.412;5.432;2023-07-20T05:51:41;10.53;;;4.30;;
74064;SDS011;62421;51.412;5.432;2023-07-20T05:54:06;8.43;;;4.10;;
74064;SDS011;62421;51.412;5.432;2023-07-20T05:56:31;8.25;;;3.67;;
74064;SDS011;62421;51.412;5.432;2023-07-20T05:58:57;7.97;;;5.15;;
74064;SDS011;62421;51.412;5.432;2023-07-20T06:01:22;6.33;;;3.87;;
74064;SDS011;62421;51.412;5.432;2023-07-20T06:03:48;8.50;;;4.63;;
74064;SDS011;62421;51.412;5.432;2023-07-20T06:06:13;11.03;;;5.93;;
74064;SDS011;62421;51.412;5.432;2023-07-20T06:08:39;12.10;;;4.72;;
74064;SDS011;62421;51.412;5.432;2023-07-20T06:11:05;9.53;;;4.87;;
74064;SDS011;62421;51.412;5.432;2023-07-20T06:13:30;8.10;;;5.10;;
74064;SDS011;62421;51.412;5.432;2023-07-20T06:15:56;9.00;;;4.75;;
74064;SDS011;62421;51.412;5.432;2023-07-20T06:18:22;8.10;;;4.87;;
74064;SDS011;62421;51.412;5.432;2023-07-20T06:20:51;7.32;;;4.32;;
74064;SDS011;62421;51.412;5.432;2023-07-20T06:23:20;9.27;;;4.70;;
74064;SDS011;62421;51.412;5.432;2023-07-20T06:25:45;7.70;;;4.47;;
74064;SDS011;62421;51.412;5.432;2023-07-20T06:28:11;8.05;;;4.80;;
74064;SDS011;62421;51.412;5.432;2023-07-20T06:30:36;8.97;;;3.60;;
74064;SDS011;62421;51.412;5.432;2023-07-20T06:33:02;9.47;;;4.40;;
74064;SDS011;62421;51.412;5.432;2023-07-20T06:35:27;5.75;;;3.28;;
74064;SDS011;62421;51.412;5.432;2023-07-20T06:37:53;5.23;;;2.20;;
74064;SDS011;62421;51.412;5.432;2023-07-20T06:40:18;4.47;;;2.10;;
74064;SDS011;62421;51.412;5.432;2023-07-20T06:42:44;4.80;;;2.00;;
74064;SDS011;62421;51.412;5.432;2023-07-20T06:45:09;3.13;;;1.55;;
74064;SDS011;62421;51.412;5.432;2023-07-20T06:47:35;6.53;;;1.40;;
74064;SDS011;62421;51.412;5.432;2023-07-20T06:50:03;4.97;;;2.00;;
74064;SDS011;62421;51.412;5.432;2023-07-20T06:52:28;4.07;;;2.00;;
74064;SDS011;62421;51.412;5.432;2023-07-20T06:54:54;4.60;;;1.67;;
74064;SDS011;62421;51.412;5.432;2023-07-20T06:57:19;5.03;;;2.13;;
74064;SDS011;62421;51.412;5.432;2023-07-20T06:59:44;3.00;;;1.80;;
74064;SDS011;62421;51.412;5.432;2023-07-20T07:02:10;4.68;;;1.73;;
74064;SDS011;62421;51.412;5.432;2023-07-20T07:04:35;5.30;;;2.60;;
74064;SDS011;62421;51.412;5.432;2023-07-20T07:07:01;4.90;;;2.20;;
74064;SDS011;62421;51.412;5.432;2023-07-20T07:09:27;5.10;;;2.25;;
74064;SDS011;62421;51.412;5.432;2023-07-20T07:11:52;6.13;;;2.67;;
74064;SDS011;62421;51.412;5.432;2023-07-20T07:14:18;5.10;;;2.40;;
74064;SDS011;62421;51.412;5.432;2023-07-20T07:16:45;4.35;;;2.00;;
74064;SDS011;62421;51.412;5.432;2023-07-20T07:19:10;5.03;;;1.97;;
74064;SDS011;62421;51.412;5.432;2023-07-20T07:21:35;3.83;;;1.60;;
74064;SDS011;62421;51.412;5.432;2023-07-20T07:24:01;5.73;;;1.73;;
74064;SDS011;62421;51.412;5.432;2023-07-20T07:26:26;2.40;;;1.20;;
74064;SDS011;62421;51.412;5.432;2023-07-20T07:28:51;3.97;;;1.70;;
74064;SDS011;62421;51.412;5.432;2023-07-20T07:31:17;4.23;;;2.17;;
74064;SDS011;62421;51.412;5.432;2023-07-20T07:33:42;4.77;;;1.73;;
74064;SDS011;62421;51.412;5.432;2023-07-20T07:36:08;4.80;;;2.03;;
74064;SDS011;62421;51.412;5.432;2023-07-20T07:38:33;3.30;;;1.43;;
74064;SDS011;62421;51.412;5.432;2023-07-20T07:40:59;3.83;;;1.40;;
74064;SDS011;62421;51.412;5.432;2023-07-20T07:43:24;3.65;;;1.70;;
74064;SDS011;62421;51.412;5.432;2023-07-20T07:45:50;3.27;;;1.60;;
74064;SDS011;62421;51.412;5.432;2023-07-20T07:48:18;3.00;;;1.60;;
74064;SDS011;62421;51.412;5.432;2023-07-20T07:50:45;3.35;;;1.80;;
74064;SDS011;62421;51.412;5.432;2023-07-20T07:53:11;7.53;;;1.63;;
74064;SDS011;62421;51.412;5.432;2023-07-20T07:55:36;3.73;;;1.30;;
74064;SDS011;62421;51.412;5.432;2023-07-20T07:58:02;2.83;;;1.30;;
74064;SDS011;62421;51.412;5.432;2023-07-20T08:00:27;3.23;;;1.40;;
74064;SDS011;62421;51.412;5.432;2023-07-20T08:02:52;2.97;;;1.70;;
74064;SDS011;62421;51.412;5.432;2023-07-20T08:05:18;4.10;;;1.70;;
74064;SDS011;62421;51.412;5.432;2023-07-20T08:07:43;6.10;;;1.57;;
74064;SDS011;62421;51.412;5.432;2023-07-20T08:10:09;3.60;;;1.10;;
74064;SDS011;62421;51.412;5.432;2023-07-20T08:12:34;3.70;;;1.10;;
74064;SDS011;62421;51.412;5.432;2023-07-20T08:15:00;3.77;;;1.20;;
74064;SDS011;62421;51.412;5.432;2023-07-20T08:17:25;3.38;;;0.70;;
74064;SDS011;62421;51.412;5.432;2023-07-20T08:19:51;3.03;;;1.00;;
74064;SDS011;62421;51.412;5.432;2023-07-20T08:22:16;7.20;;;1.60;;
74064;SDS011;62421;51.412;5.432;2023-07-20T08:24:42;5.03;;;1.30;;
74064;SDS011;62421;51.412;5.432;2023-07-20T08:27:08;2.97;;;1.25;;
74064;SDS011;62421;51.412;5.432;2023-07-20T08:29:37;6.82;;;1.40;;
74064;SDS011;62421;51.412;5.432;2023-07-20T08:32:02;3.50;;;1.40;;
74064;SDS011;62421;51.412;5.432;2023-07-20T08:34:31;3.38;;;1.38;;
74064;SDS011;62421;51.412;5.432;2023-07-20T08:36:57;2.33;;;0.93;;
74064;SDS011;62421;51.412;5.432;2023-07-20T08:39:23;5.68;;;1.58;;
74064;SDS011;62421;51.412;5.432;2023-07-20T08:41:49;3.03;;;1.40;;
74064;SDS011;62421;51.412;5.432;2023-07-20T08:44:15;3.63;;;1.40;;
74064;SDS011;62421;51.412;5.432;2023-07-20T08:46:40;3.08;;;1.20;;
74064;SDS011;62421;51.412;5.432;2023-07-20T08:49:07;3.60;;;1.10;;
74064;SDS011;62421;51.412;5.432;2023-07-20T08:51:33;3.22;;;1.30;;
74064;SDS011;62421;51.412;5.432;2023-07-20T08:54:01;2.40;;;1.17;;
74064;SDS011;62421;51.412;5.432;2023-07-20T08:56:27;1.65;;;0.82;;
74064;SDS011;62421;51.412;5.432;2023-07-20T08:58:54;2.00;;;0.90;;
74064;SDS011;62421;51.412;5.432;2023-07-20T09:01:20;2.60;;;0.90;;
74064;SDS011;62421;51.412;5.432;2023-07-20T09:03:47;3.65;;;1.02;;
74064;SDS011;62421;51.412;5.432;2023-07-20T09:06:13;3.20;;;1.17;;
74064;SDS011;62421;51.412;5.432;2023-07-20T09:08:42;5.93;;;1.13;;
74064;SDS011;62421;51.412;5.432;2023-07-20T09:11:08;1.40;;;0.80;;
74064;SDS011;62421;51.412;5.432;2023-07-20T09:13:37;2.80;;;1.13;;
74064;SDS011;62421;51.412;5.432;2023-07-20T09:16:03;2.03;;;0.90;;
74064;SDS011;62421;51.412;5.432;2023-07-20T09:18:30;1.70;;;0.80;;
74064;SDS011;62421;51.412;5.432;2023-07-20T09:20:58;2.00;;;1.08;;
74064;SDS011;62421;51.412;5.432;2023-07-20T09:23:30;1.93;;;0.80;;
74064;SDS011;62421;51.412;5.432;2023-07-20T09:25:59;3.08;;;0.90;;
74064;SDS011;62421;51.412;5.432;2023-07-20T09:28:26;2.90;;;1.00;;
74064;SDS011;62421;51.412;5.432;2023-07-20T09:30:51;3.20;;;0.90;;
74064;SDS011;62421;51.412;5.432;2023-07-20T09:33:23;3.60;;;1.05;;
74064;SDS011;62421;51.412;5.432;2023-07-20T09:35:49;2.60;;;1.02;;
74064;SDS011;62421;51.412;5.432;2023-07-20T09:38:18;2.00;;;1.07;;
74064;SDS011;62421;51.412;5.432;2023-07-20T09:40:44;3.03;;;1.30;;
74064;SDS011;62421;51.412;5.432;2023-07-20T09:43:10;2.47;;;1.03;;
74064;SDS011;62421;51.412;5.432;2023-07-20T09:45:56;3.58;;;0.98;;
74064;SDS011;62421;51.412;5.432;2023-07-20T09:48:23;2.37;;;1.20;;
74064;SDS011;62421;51.412;5.432;2023-07-20T09:50:50;3.47;;;0.98;;
74064;SDS011;62421;51.412;5.432;2023-07-20T09:53:19;2.45;;;1.08;;
74064;SDS011;62421;51.412;5.432;2023-07-20T09:55:45;3.50;;;1.23;;
74064;SDS011;62421;51.412;5.432;2023-07-20T09:58:12;2.78;;;1.52;;
74064;SDS011;62421;51.412;5.432;2023-07-20T10:00:38;2.20;;;1.20;;
74064;SDS011;62421;51.412;5.432;2023-07-20T10:03:05;3.33;;;1.20;;
74064;SDS011;62421;51.412;5.432;2023-07-20T10:05:35;4.13;;;1.08;;
74064;SDS011;62421;51.412;5.432;2023-07-20T10:08:02;2.63;;;1.10;;
74064;SDS011;62421;51.412;5.432;2023-07-20T10:10:29;5.63;;;1.30;;
74064;SDS011;62421;51.412;5.432;2023-07-20T10:12:57;2.88;;;1.25;;
74064;SDS011;62421;51.412;5.432;2023-07-20T10:15:28;3.80;;;1.38;;
74064;SDS011;62421;51.412;5.432;2023-07-20T10:20:57;3.30;;;1.00;;
74064;SDS011;62421;51.412;5.432;2023-07-20T10:23:26;3.80;;;1.00;;
74064;SDS011;62421;51.412;5.432;2023-07-20T10:25:54;2.47;;;0.90;;
74064;SDS011;62421;51.412;5.432;2023-07-20T10:28:20;2.33;;;0.95;;
74064;SDS011;62421;51.412;5.432;2023-07-20T10:30:48;3.13;;;0.63;;
74064;SDS011;62421;51.412;5.432;2023-07-20T10:33:15;4.07;;;0.90;;
74064;SDS011;62421;51.412;5.432;2023-07-20T10:35:52;1.83;;;0.77;;
74064;SDS011;62421;51.412;5.432;2023-07-20T10:38:37;3.88;;;0.80;;
74064;SDS011;62421;51.412;5.432;2023-07-20T10:41:49;2.58;;;1.10;;
74064;SDS011;62421;51.412;5.432;2023-07-20T10:44:03;2.10;;;1.00;;
74064;SDS011;62421;51.412;5.432;2023-07-20T10:49:05;3.23;;;0.87;;
74064;SDS011;62421;51.412;5.432;2023-07-20T10:51:47;2.15;;;0.88;;
74064;SDS011;62421;51.412;5.432;2023-07-20T10:56:42;3.03;;;1.13;;
74064;SDS011;62421;51.412;5.432;2023-07-20T10:59:18;2.47;;;1.20;;
74064;SDS011;62421;51.412;5.432;2023-07-20T11:01:50;3.40;;;0.97;;
74064;SDS011;62421;51.412;5.432;2023-07-20T11:04:20;4.55;;;1.88;;
74064;SDS011;62421;51.412;5.432;2023-07-20T11:10:12;3.22;;;0.90;;
74064;SDS011;62421;51.412;5.432;2023-07-20T11:12:39;2.15;;;0.85;;
74064;SDS011;62421;51.412;5.432;2023-07-20T11:15:05;3.97;;;0.77;;
74064;SDS011;62421;51.412;5.432;2023-07-20T11:17:31;3.08;;;1.27;;
74064;SDS011;62421;51.412;5.432;2023-07-20T11:19:58;4.30;;;1.27;;
74064;SDS011;62421;51.412;5.432;2023-07-20T11:22:28;5.22;;;1.45;;
74064;SDS011;62421;51.412;5.432;2023-07-20T11:24:56;1.77;;;0.98;;
74064;SDS011;62421;51.412;5.432;2023-07-20T11:27:22;4.75;;;0.95;;
74064;SDS011;62421;51.412;5.432;2023-07-20T11:29:48;3.73;;;0.97;;
74064;SDS011;62421;51.412;5.432;2023-07-20T11:32:21;2.65;;;1.20;;
74064;SDS011;62421;51.412;5.432;2023-07-20T11:34:47;4.10;;;1.10;;
74064;SDS011;62421;51.412;5.432;2023-07-20T11:37:19;3.08;;;1.00;;
74064;SDS011;62421;51.412;5.432;2023-07-20T11:39:44;4.13;;;1.37;;
74064;SDS011;62421;51.412;5.432;2023-07-20T11:42:10;3.47;;;0.90;;
74064;SDS011;62421;51.412;5.432;2023-07-20T11:44:36;2.83;;;1.20;;
74064;SDS011;62421;51.412;5.432;2023-07-20T11:47:09;2.42;;;1.23;;
74064;SDS011;62421;51.412;5.432;2023-07-20T11:49:40;3.63;;;1.33;;
74064;SDS011;62421;51.412;5.432;2023-07-20T11:52:07;2.63;;;1.30;;
74064;SDS011;62421;51.412;5.432;2023-07-20T11:54:34;2.53;;;1.30;;
74064;SDS011;62421;51.412;5.432;2023-07-20T11:57:00;5.17;;;1.13;;
74064;SDS011;62421;51.412;5.432;2023-07-20T11:59:26;2.28;;;1.00;;
74064;SDS011;62421;51.412;5.432;2023-07-20T12:01:52;3.10;;;1.40;;
74064;SDS011;62421;51.412;5.432;2023-07-20T12:04:18;3.40;;;1.13;;
74064;SDS011;62421;51.412;5.432;2023-07-20T12:06:44;2.83;;;1.00;;
74064;SDS011;62421;51.412;5.432;2023-07-20T12:09:13;2.25;;;1.10;;
74064;SDS011;62421;51.412;5.432;2023-07-20T12:11:39;3.45;;;1.10;;
74064;SDS011;62421;51.412;5.432;2023-07-20T12:14:08;3.70;;;0.80;;
74064;SDS011;62421;51.412;5.432;2023-07-20T12:16:34;2.42;;;1.13;;
74064;SDS011;62421;51.412;5.432;2023-07-20T12:21:27;6.57;;;1.07;;
74064;SDS011;62421;51.412;5.432;2023-07-20T12:23:52;3.40;;;0.80;;
74064;SDS011;62421;51.412;5.432;2023-07-20T12:26:18;2.60;;;1.07;;
74064;SDS011;62421;51.412;5.432;2023-07-20T12:28:45;2.53;;;0.90;;
74064;SDS011;62421;51.412;5.432;2023-07-20T12:31:10;1.87;;;0.90;;
74064;SDS011;62421;51.412;5.432;2023-07-20T12:33:37;4.25;;;1.40;;
74064;SDS011;62421;51.412;5.432;2023-07-20T12:36:03;7.00;;;1.60;;
74064;SDS011;62421;51.412;5.432;2023-07-20T12:38:29;2.90;;;1.27;;
74064;SDS011;62421;51.412;5.432;2023-07-20T12:40:56;2.63;;;1.40;;
74064;SDS011;62421;51.412;5.432;2023-07-20T12:43:21;3.40;;;1.25;;
74064;SDS011;62421;51.412;5.432;2023-07-20T12:45:47;3.90;;;1.40;;
74064;SDS011;62421;51.412;5.432;2023-07-20T12:48:13;6.90;;;1.70;;
74064;SDS011;62421;51.412;5.432;2023-07-20T12:50:38;5.38;;;1.50;;
74064;SDS011;62421;51.412;5.432;2023-07-20T12:53:04;7.67;;;1.20;;
74064;SDS011;62421;51.412;5.432;2023-07-20T12:55:29;2.73;;;1.20;;
74064;SDS011;62421;51.412;5.432;2023-07-20T12:57:55;4.53;;;1.77;;
74064;SDS011;62421;51.412;5.432;2023-07-20T13:00:20;3.07;;;1.23;;
74064;SDS011;62421;51.412;5.432;2023-07-20T13:02:48;5.78;;;1.90;;
74064;SDS011;62421;51.412;5.432;2023-07-20T13:05:13;4.43;;;1.52;;
74064;SDS011;62421;51.412;5.432;2023-07-20T13:07:39;4.23;;;1.50;;
74064;SDS011;62421;51.412;5.432;2023-07-20T13:10:05;3.70;;;1.00;;
74064;SDS011;62421;51.412;5.432;2023-07-20T13:12:31;2.22;;;1.20;;
74064;SDS011;62421;51.412;5.432;2023-07-20T13:14:58;3.42;;;1.25;;
74064;SDS011;62421;51.412;5.432;2023-07-20T13:17:27;2.75;;;1.10;;
74064;SDS011;62421;51.412;5.432;2023-07-20T13:19:53;5.90;;;1.10;;
74064;SDS011;62421;51.412;5.432;2023-07-20T13:22:19;3.25;;;1.35;;
74064;SDS011;62421;51.412;5.432;2023-07-20T13:24:45;3.10;;;1.73;;
74064;SDS011;62421;51.412;5.432;2023-07-20T13:27:17;2.65;;;1.50;;
74064;SDS011;62421;51.412;5.432;2023-07-20T13:29:43;2.87;;;1.23;;
74064;SDS011;62421;51.412;5.432;2023-07-20T13:32:09;3.60;;;1.05;;
74064;SDS011;62421;51.412;5.432;2023-07-20T13:34:35;3.55;;;1.30;;
74064;SDS011;62421;51.412;5.432;2023-07-20T13:37:00;5.17;;;1.57;;
74064;SDS011;62421;51.412;5.432;2023-07-20T13:39:27;5.85;;;1.50;;
74064;SDS011;62421;51.412;5.432;2023-07-20T13:41:53;3.30;;;1.80;;
74064;SDS011;62421;51.412;5.432;2023-07-20T13:44:21;10.95;;;1.77;;
74064;SDS011;62421;51.412;5.432;2023-07-20T13:46:47;5.07;;;2.03;;
74064;SDS011;62421;51.412;5.432;2023-07-20T13:49:13;2.95;;;1.45;;
74064;SDS011;62421;51.412;5.432;2023-07-20T13:51:39;3.47;;;1.70;;
74064;SDS011;62421;51.412;5.432;2023-07-20T13:54:05;6.85;;;1.88;;
74064;SDS011;62421;51.412;5.432;2023-07-20T13:56:31;4.47;;;1.83;;
74064;SDS011;62421;51.412;5.432;2023-07-20T13:58:58;3.00;;;1.58;;
74064;SDS011;62421;51.412;5.432;2023-07-20T14:01:24;5.93;;;1.67;;
74064;SDS011;62421;51.412;5.432;2023-07-20T14:03:52;3.72;;;1.88;;
74064;SDS011;62421;51.412;5.432;2023-07-20T14:06:18;3.20;;;1.45;;
74064;SDS011;62421;51.412;5.432;2023-07-20T14:08:43;3.23;;;1.33;;
74064;SDS011;62421;51.412;5.432;2023-07-20T14:11:11;3.25;;;1.52;;
74064;SDS011;62421;51.412;5.432;2023-07-20T14:13:37;3.35;;;1.67;;
74064;SDS011;62421;51.412;5.432;2023-07-20T14:16:02;2.10;;;1.30;;
74064;SDS011;62421;51.412;5.432;2023-07-20T14:18:28;5.40;;;1.70;;
74064;SDS011;62421;51.412;5.432;2023-07-20T14:20:53;3.70;;;1.30;;
74064;SDS011;62421;51.412;5.432;2023-07-20T14:23:19;4.68;;;2.28;;
74064;SDS011;62421;51.412;5.432;2023-07-20T14:25:44;4.23;;;1.73;;
74064;SDS011;62421;51.412;5.432;2023-07-20T14:28:09;3.50;;;1.70;;
74064;SDS011;62421;51.412;5.432;2023-07-20T14:30:35;3.40;;;1.97;;
74064;SDS011;62421;51.412;5.432;2023-07-20T14:33:00;3.40;;;1.53;;
74064;SDS011;62421;51.412;5.432;2023-07-20T14:35:25;2.43;;;1.27;;
74064;SDS011;62421;51.412;5.432;2023-07-20T14:37:51;3.38;;;1.60;;
74064;SDS011;62421;51.412;5.432;2023-07-20T14:40:17;5.13;;;1.65;;
74064;SDS011;62421;51.412;5.432;2023-07-20T14:42:43;6.15;;;1.90;;
74064;SDS011;62421;51.412;5.432;2023-07-20T14:45:08;4.40;;;1.70;;
74064;SDS011;62421;51.412;5.432;2023-07-20T14:47:34;5.37;;;1.97;;
74064;SDS011;62421;51.412;5.432;2023-07-20T14:50:03;3.13;;;1.98;;
74064;SDS011;62421;51.412;5.432;2023-07-20T14:52:29;4.07;;;1.50;;
74064;SDS011;62421;51.412;5.432;2023-07-20T14:54:55;2.63;;;1.13;;
74064;SDS011;62421;51.412;5.432;2023-07-20T14:57:20;2.67;;;1.50;;